Time;durP1;ratioP1;P1;durP2;ratioP2;P2;SDS_P1;SDS_P2;PMS_P1;PMS_P2;Temp;Humidity;BMP_temperature;BMP_pressure;BME280_temperature;BME280_humidity;BME280_pressure;Samples;Min_cycle;Max_cycle;Signal;HPM_P1;HPM_P2
2022/11/30 00:02:22;;;;;;;57.67;25.43;;;;;;;;;;4989237;28;20460;-65
2022/11/30 00:04:48;;;;;;;71.87;27.93;;;;;;;;;;4990595;28;20042;-65
2022/11/30 00:07:14;;;;;;;63.47;27.07;;;;;;;;;;4990761;28;20483;-66
2022/11/30 00:09:40;;;;;;;70.07;27.40;;;;;;;;;;4989930;28;20129;-65
2022/11/30 00:12:06;;;;;;;93.70;29.83;;;;;;;;;;4990431;28;20055;-65
2022/11/30 00:14:32;;;;;;;58.23;28.07;;;;;;;;;;4990228;28;20046;-65
2022/11/30 00:16:59;;;;;;;91.63;32.37;;;;;;;;;;4989881;28;20056;-65
2022/11/30 00:19:25;;;;;;;96.20;32.50;;;;;;;;;;4990253;28;20077;-65
2022/11/30 00:21:51;;;;;;;83.50;30.40;;;;;;;;;;5007637;28;20416;-65
2022/11/30 00:24:17;;;;;;;75.27;30.50;;;;;;;;;;4996906;28;20061;-65
2022/11/30 00:26:43;;;;;;;93.80;33.83;;;;;;;;;;4989667;28;20050;-65
2022/11/30 00:29:09;;;;;;;74.73;32.67;;;;;;;;;;5005462;28;20054;-65
2022/11/30 00:31:35;;;;;;;113.63;37.53;;;;;;;;;;4999893;28;20050;-65
2022/11/30 00:34:01;;;;;;;108.70;36.80;;;;;;;;;;5001519;28;20046;-65
2022/11/30 00:36:27;;;;;;;91.80;35.17;;;;;;;;;;4999524;28;20408;-65
2022/11/30 00:38:53;;;;;;;99.37;37.10;;;;;;;;;;4998321;28;20394;-65
2022/11/30 00:41:19;;;;;;;147.27;42.23;;;;;;;;;;4998619;28;20084;-65
2022/11/30 00:43:46;;;;;;;106.13;36.70;;;;;;;;;;4999943;28;20132;-65
2022/11/30 00:46:12;;;;;;;140.03;41.57;;;;;;;;;;4998495;28;20046;-65
2022/11/30 00:48:38;;;;;;;152.87;41.73;;;;;;;;;;5002607;28;20042;-65
2022/11/30 00:51:05;;;;;;;151.63;41.17;;;;;;;;;;4995600;28;20042;-65
2022/11/30 00:53:31;;;;;;;121.43;37.93;;;;;;;;;;4998529;28;20038;-65
2022/11/30 00:55:57;;;;;;;132.07;40.63;;;;;;;;;;4996429;28;20069;-65
2022/11/30 00:58:23;;;;;;;173.77;40.33;;;;;;;;;;4998020;28;20564;-65
2022/11/30 01:00:50;;;;;;;142.07;30.50;;;;;;;;;;4994838;28;20046;-65
2022/11/30 01:03:16;;;;;;;129.83;30.57;;;;;;;;;;4997683;28;20085;-65
2022/11/30 01:05:42;;;;;;;134.17;30.67;;;;;;;;;;4998628;28;20073;-65
2022/11/30 01:08:10;;;;;;;107.80;29.90;;;;;;;;;;4998088;28;20049;-65
2022/11/30 01:10:37;;;;;;;133.67;34.33;;;;;;;;;;4998264;28;20502;-65
2022/11/30 01:13:04;;;;;;;139.93;39.90;;;;;;;;;;4996477;28;20035;-65
2022/11/30 01:15:30;;;;;;;158.90;42.03;;;;;;;;;;4998039;28;20053;-65
2022/11/30 01:17:59;;;;;;;220.47;48.87;;;;;;;;;;4998809;28;20069;-65
2022/11/30 01:20:25;;;;;;;297.03;59.63;;;;;;;;;;4997383;28;20078;-65
2022/11/30 01:22:51;;;;;;;250.67;54.07;;;;;;;;;;5001688;28;20420;-65
2022/11/30 01:25:17;;;;;;;165.20;43.17;;;;;;;;;;4997499;28;20167;-65
2022/11/30 01:27:43;;;;;;;186.43;47.40;;;;;;;;;;5000608;28;21568;-65
2022/11/30 01:30:09;;;;;;;261.00;55.50;;;;;;;;;;4998117;28;20038;-64
2022/11/30 01:32:35;;;;;;;356.67;61.17;;;;;;;;;;4995652;28;20046;-65
2022/11/30 01:35:01;;;;;;;280.13;55.90;;;;;;;;;;5000066;28;20062;-65
2022/11/30 01:37:28;;;;;;;164.07;45.03;;;;;;;;;;4993459;28;20046;-65
2022/11/30 01:39:54;;;;;;;152.70;45.23;;;;;;;;;;4996977;28;20081;-65
2022/11/30 01:42:20;;;;;;;165.30;45.33;;;;;;;;;;4998832;28;20038;-65
2022/11/30 01:44:50;;;;;;;121.30;41.23;;;;;;;;;;4996434;28;20054;-65
2022/11/30 01:47:16;;;;;;;134.80;42.97;;;;;;;;;;4995107;28;20053;-65
2022/11/30 01:49:45;;;;;;;161.17;46.77;;;;;;;;;;4997740;28;20052;-65
2022/11/30 01:52:13;;;;;;;165.83;47.33;;;;;;;;;;4995868;28;20049;-65
2022/11/30 01:54:42;;;;;;;145.33;45.47;;;;;;;;;;4997757;28;20469;-65
2022/11/30 01:57:10;;;;;;;148.07;43.70;;;;;;;;;;4996762;28;20038;-65
2022/11/30 01:59:36;;;;;;;152.80;46.83;;;;;;;;;;4996442;28;20043;-65
2022/11/30 02:02:02;;;;;;;143.53;45.03;;;;;;;;;;4995854;28;20439;-65
2022/11/30 02:04:32;;;;;;;153.00;46.47;;;;;;;;;;4996301;28;20556;-66
2022/11/30 02:06:59;;;;;;;158.40;49.87;;;;;;;;;;4997980;28;20084;-66
2022/11/30 02:09:25;;;;;;;114.90;41.97;;;;;;;;;;5000175;28;20046;-66
2022/11/30 02:11:51;;;;;;;115.97;42.33;;;;;;;;;;4999940;28;20546;-66
2022/11/30 02:14:26;;;;;;;141.70;44.33;;;;;;;;;;4998527;28;20157;-66
2022/11/30 02:16:58;;;;;;;106.40;43.00;;;;;;;;;;4999644;28;20520;-66
2022/11/30 02:19:27;;;;;;;125.67;43.07;;;;;;;;;;4997194;28;20039;-66
2022/11/30 02:22:04;;;;;;;96.40;39.17;;;;;;;;;;5003794;28;20053;-66
2022/11/30 02:24:50;;;;;;;116.90;41.37;;;;;;;;;;4999366;28;20046;-66
2022/11/30 02:27:16;;;;;;;114.53;41.10;;;;;;;;;;4999643;28;20084;-66
2022/11/30 02:29:44;;;;;;;138.97;44.77;;;;;;;;;;4999023;28;20073;-66
2022/11/30 02:32:21;;;;;;;131.07;42.00;;;;;;;;;;5002055;28;20042;-67
2022/11/30 02:34:48;;;;;;;145.07;47.63;;;;;;;;;;5002890;28;20046;-66
2022/11/30 02:37:15;;;;;;;139.40;43.37;;;;;;;;;;4999314;28;20052;-66
2022/11/30 02:39:42;;;;;;;127.27;43.47;;;;;;;;;;5004041;28;20085;-66
2022/11/30 02:42:14;;;;;;;117.07;41.60;;;;;;;;;;5000661;28;20041;-66
2022/11/30 02:44:41;;;;;;;153.23;46.17;;;;;;;;;;4999551;28;20059;-66
2022/11/30 02:47:07;;;;;;;136.80;43.23;;;;;;;;;;5000744;28;20151;-66
2022/11/30 02:49:40;;;;;;;155.73;47.23;;;;;;;;;;4997508;28;20046;-66
2022/11/30 02:52:06;;;;;;;119.47;40.70;;;;;;;;;;4999894;28;20062;-66
2022/11/30 02:54:33;;;;;;;116.00;41.00;;;;;;;;;;5000223;28;20042;-66
2022/11/30 02:56:59;;;;;;;134.70;44.63;;;;;;;;;;5002366;28;20500;-66
2022/11/30 02:59:25;;;;;;;149.07;44.93;;;;;;;;;;4999619;28;20077;-66
2022/11/30 03:01:51;;;;;;;133.57;43.90;;;;;;;;;;5000178;28;20081;-66
2022/11/30 03:04:17;;;;;;;123.13;41.50;;;;;;;;;;5003473;28;20084;-66
2022/11/30 03:06:43;;;;;;;128.47;43.20;;;;;;;;;;5001839;28;20640;-66
2022/11/30 03:09:09;;;;;;;109.10;38.40;;;;;;;;;;4998526;28;20052;-66
2022/11/30 03:11:35;;;;;;;132.83;42.77;;;;;;;;;;4999683;28;20041;-66
2022/11/30 03:14:01;;;;;;;140.93;47.80;;;;;;;;;;4997491;28;20081;-66
2022/11/30 03:16:27;;;;;;;110.43;40.37;;;;;;;;;;5003241;28;20133;-66
2022/11/30 03:18:53;;;;;;;115.27;41.63;;;;;;;;;;5000374;28;20120;-66
2022/11/30 03:21:20;;;;;;;133.03;45.10;;;;;;;;;;4999019;28;20049;-66
2022/11/30 03:23:46;;;;;;;108.80;40.47;;;;;;;;;;4997574;28;20062;-66
2022/11/30 03:26:12;;;;;;;109.80;40.80;;;;;;;;;;5001749;28;20050;-66
2022/11/30 03:28:38;;;;;;;122.47;42.07;;;;;;;;;;5003179;28;20456;-66
2022/11/30 03:31:04;;;;;;;103.60;39.60;;;;;;;;;;4999523;28;20877;-66
2022/11/30 03:33:30;;;;;;;134.43;45.43;;;;;;;;;;5000529;28;20038;-66
2022/11/30 03:36:04;;;;;;;176.53;48.87;;;;;;;;;;5002229;28;20089;-66
2022/11/30 03:38:30;;;;;;;121.03;42.60;;;;;;;;;;5004640;28;20046;-66
2022/11/30 03:41:03;;;;;;;138.37;43.77;;;;;;;;;;5001859;28;20038;-66
2022/11/30 03:43:30;;;;;;;130.65;45.13;;;;;;;;;;5003260;28;20444;-66
2022/11/30 03:45:56;;;;;;;127.20;43.73;;;;;;;;;;5003226;28;20051;-66
2022/11/30 03:48:22;;;;;;;123.87;43.37;;;;;;;;;;5000463;28;20046;-66
2022/11/30 03:50:49;;;;;;;130.13;43.60;;;;;;;;;;4999041;28;21528;-66
2022/11/30 03:53:16;;;;;;;143.90;43.57;;;;;;;;;;5002223;28;20507;-66
2022/11/30 03:55:42;;;;;;;141.77;43.10;;;;;;;;;;4996200;28;20088;-66
2022/11/30 03:58:08;;;;;;;129.83;43.83;;;;;;;;;;5000469;28;20041;-66
2022/11/30 04:00:34;;;;;;;149.83;44.27;;;;;;;;;;5002173;28;20045;-66
2022/11/30 04:03:00;;;;;;;136.60;44.60;;;;;;;;;;4996681;28;20104;-66
2022/11/30 04:05:26;;;;;;;112.30;40.13;;;;;;;;;;4999453;28;20042;-66
2022/11/30 04:07:52;;;;;;;159.87;45.53;;;;;;;;;;5001520;28;20218;-67
2022/11/30 04:10:18;;;;;;;134.73;43.47;;;;;;;;;;4999953;28;20041;-66
2022/11/30 04:12:44;;;;;;;125.90;41.53;;;;;;;;;;4995143;28;20099;-66
2022/11/30 04:15:10;;;;;;;115.77;40.87;;;;;;;;;;5008192;28;20540;-66
2022/11/30 04:17:36;;;;;;;143.97;44.87;;;;;;;;;;5005393;28;20039;-66
2022/11/30 04:20:03;;;;;;;148.67;44.90;;;;;;;;;;4990507;28;20078;-66
2022/11/30 04:22:29;;;;;;;142.40;42.07;;;;;;;;;;4999681;28;20037;-66
2022/11/30 04:24:55;;;;;;;124.27;40.10;;;;;;;;;;5009618;28;20041;-66
2022/11/30 04:27:21;;;;;;;118.23;40.40;;;;;;;;;;5007086;28;20050;-66
2022/11/30 04:29:47;;;;;;;122.73;40.93;;;;;;;;;;5009633;28;20037;-66
2022/11/30 04:32:13;;;;;;;172.87;46.47;;;;;;;;;;5008487;28;20401;-66
2022/11/30 04:34:39;;;;;;;131.17;40.83;;;;;;;;;;5009646;28;20089;-66
2022/11/30 04:37:05;;;;;;;109.00;39.57;;;;;;;;;;5010104;28;20081;-66
2022/11/30 04:39:32;;;;;;;144.67;41.53;;;;;;;;;;5009286;28;20132;-66
2022/11/30 04:41:58;;;;;;;114.03;39.13;;;;;;;;;;5009746;28;20052;-66
2022/11/30 04:44:24;;;;;;;164.77;47.00;;;;;;;;;;5009694;28;20057;-66
2022/11/30 04:46:50;;;;;;;149.83;43.73;;;;;;;;;;5009605;28;20042;-66
2022/11/30 04:49:17;;;;;;;123.00;41.70;;;;;;;;;;5009436;28;20053;-66
2022/11/30 04:51:43;;;;;;;126.10;39.93;;;;;;;;;;5009855;28;20054;-66
2022/11/30 04:54:09;;;;;;;167.57;46.40;;;;;;;;;;5008502;28;20049;-67
2022/11/30 04:56:35;;;;;;;148.03;44.07;;;;;;;;;;5009559;28;20046;-66
2022/11/30 04:59:01;;;;;;;103.70;37.50;;;;;;;;;;5009383;28;20412;-66
2022/11/30 05:01:27;;;;;;;160.73;47.57;;;;;;;;;;5008160;28;20112;-66
2022/11/30 05:03:53;;;;;;;141.73;45.93;;;;;;;;;;5009433;28;20509;-66
2022/11/30 05:06:19;;;;;;;123.03;42.77;;;;;;;;;;5009322;28;20072;-66
2022/11/30 05:08:45;;;;;;;143.50;45.13;;;;;;;;;;5009170;28;20103;-66
2022/11/30 05:11:11;;;;;;;159.07;47.50;;;;;;;;;;5009017;28;20419;-65
2022/11/30 05:13:37;;;;;;;176.33;47.50;;;;;;;;;;5009032;28;20045;-65
2022/11/30 05:16:04;;;;;;;132.00;43.53;;;;;;;;;;5009143;28;20073;-66
2022/11/30 05:18:30;;;;;;;141.03;44.67;;;;;;;;;;5009098;28;20046;-66
2022/11/30 05:20:56;;;;;;;134.90;43.97;;;;;;;;;;5008714;28;20052;-66
2022/11/30 05:23:22;;;;;;;149.07;45.07;;;;;;;;;;5007783;28;20082;-66
2022/11/30 05:25:48;;;;;;;139.60;46.73;;;;;;;;;;5002255;28;20373;-66
2022/11/30 05:28:14;;;;;;;130.53;44.70;;;;;;;;;;4989144;28;20046;-66
2022/11/30 05:30:41;;;;;;;148.57;48.50;;;;;;;;;;4989499;28;20648;-66
2022/11/30 05:33:07;;;;;;;141.80;45.70;;;;;;;;;;4989036;28;20077;-66
2022/11/30 05:35:33;;;;;;;145.97;48.00;;;;;;;;;;4989655;28;20054;-66
2022/11/30 05:37:59;;;;;;;128.90;42.30;;;;;;;;;;4988375;28;20046;-66
2022/11/30 05:40:27;;;;;;;136.33;46.10;;;;;;;;;;4988823;28;20130;-66
2022/11/30 05:42:57;;;;;;;124.97;43.00;;;;;;;;;;4990659;28;20058;-66
2022/11/30 05:45:23;;;;;;;128.30;43.23;;;;;;;;;;4991186;28;20058;-66
2022/11/30 05:47:49;;;;;;;121.83;44.13;;;;;;;;;;4992599;28;20046;-66
2022/11/30 05:50:15;;;;;;;127.07;43.17;;;;;;;;;;4993320;28;20046;-66
2022/11/30 05:52:41;;;;;;;134.03;46.07;;;;;;;;;;4993268;28;20133;-66
2022/11/30 05:55:08;;;;;;;133.00;45.97;;;;;;;;;;4993238;28;20046;-66
2022/11/30 05:57:38;;;;;;;138.60;45.60;;;;;;;;;;4992431;28;20050;-66
2022/11/30 06:00:08;;;;;;;146.00;44.80;;;;;;;;;;4990914;28;20054;-66
2022/11/30 06:02:34;;;;;;;145.07;44.97;;;;;;;;;;4991180;28;20460;-66
2022/11/30 06:05:00;;;;;;;138.47;45.60;;;;;;;;;;4990551;28;20054;-66
2022/11/30 06:07:26;;;;;;;162.83;50.70;;;;;;;;;;4989765;28;20042;-66
2022/11/30 06:09:53;;;;;;;144.80;47.13;;;;;;;;;;4991189;28;20511;-66
2022/11/30 06:12:19;;;;;;;163.67;50.97;;;;;;;;;;4997304;28;20052;-66
2022/11/30 06:14:45;;;;;;;181.20;51.23;;;;;;;;;;5012365;28;20459;-66
2022/11/30 06:17:11;;;;;;;135.17;45.93;;;;;;;;;;5011929;28;20073;-66
2022/11/30 06:19:37;;;;;;;160.57;47.37;;;;;;;;;;5011078;28;20065;-66
2022/11/30 06:22:03;;;;;;;168.13;49.47;;;;;;;;;;5012059;28;20057;-66
2022/11/30 06:24:29;;;;;;;185.37;54.07;;;;;;;;;;5012047;28;20045;-66
2022/11/30 06:26:55;;;;;;;168.47;49.53;;;;;;;;;;5011810;28;20046;-66
2022/11/30 06:29:21;;;;;;;173.57;50.23;;;;;;;;;;5001081;28;20417;-66
2022/11/30 06:31:47;;;;;;;156.57;47.80;;;;;;;;;;4992429;28;20050;-67
2022/11/30 06:34:13;;;;;;;180.57;52.67;;;;;;;;;;4991077;28;20109;-66
2022/11/30 06:36:39;;;;;;;237.80;55.93;;;;;;;;;;4992290;28;20057;-66
2022/11/30 06:39:05;;;;;;;178.00;50.17;;;;;;;;;;4990852;28;20050;-66
2022/11/30 06:41:31;;;;;;;152.60;47.83;;;;;;;;;;4992191;28;20519;-66
2022/11/30 06:43:57;;;;;;;159.13;47.77;;;;;;;;;;4990851;28;20051;-66
2022/11/30 06:46:23;;;;;;;176.63;50.00;;;;;;;;;;4992115;28;20086;-66
2022/11/30 06:48:49;;;;;;;175.43;47.40;;;;;;;;;;4992003;28;20432;-66
2022/11/30 06:51:16;;;;;;;127.27;42.53;;;;;;;;;;4992034;28;20216;-66
2022/11/30 06:53:46;;;;;;;166.03;47.87;;;;;;;;;;4991744;28;20042;-66
2022/11/30 06:56:12;;;;;;;139.90;45.00;;;;;;;;;;4990713;28;20050;-66
2022/11/30 06:58:38;;;;;;;139.00;46.23;;;;;;;;;;4991800;28;20042;-66
2022/11/30 07:01:08;;;;;;;189.47;51.30;;;;;;;;;;5006564;28;20052;-66
2022/11/30 07:03:35;;;;;;;168.23;49.30;;;;;;;;;;5010031;28;20540;-66
2022/11/30 07:06:05;;;;;;;149.20;49.23;;;;;;;;;;5010092;28;20072;-66
2022/11/30 07:08:31;;;;;;;126.83;44.17;;;;;;;;;;5010460;28;20046;-66
2022/11/30 07:10:58;;;;;;;149.27;47.57;;;;;;;;;;5011350;28;20048;-66
2022/11/30 07:13:24;;;;;;;152.70;44.67;;;;;;;;;;5009902;28;20049;-66
2022/11/30 07:15:50;;;;;;;146.47;45.93;;;;;;;;;;5011222;28;20057;-66
2022/11/30 07:18:16;;;;;;;146.07;45.07;;;;;;;;;;5010996;28;20046;-66
2022/11/30 07:20:42;;;;;;;161.00;45.50;;;;;;;;;;5010390;28;20046;-66
2022/11/30 07:26:06;;;;;;;155.90;44.93;;;;;;;;;;5011058;28;20496;-66
2022/11/30 07:28:36;;;;;;;126.63;43.00;;;;;;;;;;5010659;28;20483;-66
2022/11/30 07:31:12;;;;;;;118.03;39.80;;;;;;;;;;5010771;28;20508;-66
2022/11/30 07:33:38;;;;;;;125.50;43.03;;;;;;;;;;5009589;28;20129;-66
2022/11/30 07:36:04;;;;;;;126.77;42.50;;;;;;;;;;5010580;28;20188;-66
2022/11/30 07:38:30;;;;;;;112.90;39.20;;;;;;;;;;5010669;28;20046;-66
2022/11/30 07:40:57;;;;;;;119.30;40.27;;;;;;;;;;5010265;28;20046;-66
2022/11/30 07:43:23;;;;;;;126.63;41.73;;;;;;;;;;5006160;28;20160;-66
2022/11/30 07:45:52;;;;;;;177.90;45.80;;;;;;;;;;4973844;28;20046;-66
2022/11/30 07:48:19;;;;;;;124.17;41.17;;;;;;;;;;4989635;28;20046;-66
2022/11/30 07:50:45;;;;;;;127.43;41.47;;;;;;;;;;4990806;28;20049;-66
2022/11/30 07:53:11;;;;;;;133.80;43.17;;;;;;;;;;4990137;28;20050;-66
2022/11/30 07:55:37;;;;;;;134.73;41.83;;;;;;;;;;4990516;28;20050;-66
2022/11/30 07:58:03;;;;;;;130.13;42.13;;;;;;;;;;4990601;28;20466;-66
2022/11/30 08:00:29;;;;;;;121.03;38.93;;;;;;;;;;4988981;28;20046;-66
2022/11/30 08:02:55;;;;;;;119.80;40.53;;;;;;;;;;4990161;28;20042;-66
2022/11/30 08:05:22;;;;;;;111.17;39.07;;;;;;;;;;4989592;28;20043;-66
2022/11/30 08:07:52;;;;;;;125.90;41.53;;;;;;;;;;4989712;28;20086;-66
2022/11/30 08:10:18;;;;;;;140.83;43.07;;;;;;;;;;4991223;28;20420;-66
2022/11/30 08:12:44;;;;;;;121.47;38.80;;;;;;;;;;4990110;28;20564;-66
2022/11/30 08:15:10;;;;;;;122.40;37.60;;;;;;;;;;4990035;28;20081;-66
2022/11/30 08:17:36;;;;;;;105.17;36.73;;;;;;;;;;4989906;28;20038;-66
2022/11/30 08:20:03;;;;;;;113.00;38.83;;;;;;;;;;4990260;28;20386;-66
2022/11/30 08:22:29;;;;;;;114.83;38.93;;;;;;;;;;4989951;28;20049;-66
2022/11/30 08:24:55;;;;;;;95.20;34.93;;;;;;;;;;4990196;28;20050;-66
2022/11/30 08:27:21;;;;;;;88.40;33.53;;;;;;;;;;4989809;28;20042;-66
2022/11/30 08:29:47;;;;;;;87.93;32.77;;;;;;;;;;4989627;28;20053;-66
2022/11/30 08:32:13;;;;;;;80.97;31.57;;;;;;;;;;4990130;28;20042;-66
2022/11/30 08:34:39;;;;;;;80.20;29.80;;;;;;;;;;4989113;28;20108;-66
2022/11/30 08:37:05;;;;;;;74.90;29.67;;;;;;;;;;4989774;28;20046;-66
2022/11/30 08:39:33;;;;;;;76.23;29.53;;;;;;;;;;4992851;28;20043;-66
2022/11/30 08:41:59;;;;;;;57.20;24.97;;;;;;;;;;4998597;28;20519;-66
2022/11/30 08:44:25;;;;;;;55.03;23.97;;;;;;;;;;5008998;28;20139;-66
2022/11/30 08:46:51;;;;;;;68.63;25.93;;;;;;;;;;5000111;28;20058;-66
2022/11/30 08:49:17;;;;;;;49.87;21.97;;;;;;;;;;5008046;28;20485;-66
2022/11/30 08:51:43;;;;;;;61.23;25.03;;;;;;;;;;4989681;28;20062;-66
2022/11/30 08:54:09;;;;;;;53.77;23.97;;;;;;;;;;4989607;28;20145;-66
2022/11/30 08:56:35;;;;;;;49.27;22.30;;;;;;;;;;4989399;28;20498;-66
2022/11/30 08:59:01;;;;;;;54.57;24.30;;;;;;;;;;5006201;28;20046;-66
2022/11/30 09:01:28;;;;;;;52.20;24.67;;;;;;;;;;5009189;28;20049;-66
2022/11/30 09:03:54;;;;;;;49.97;22.33;;;;;;;;;;5009591;28;20104;-66
2022/11/30 09:06:25;;;;;;;45.30;21.20;;;;;;;;;;5008192;28;20052;-66
2022/11/30 09:08:51;;;;;;;51.60;22.73;;;;;;;;;;5008766;28;20050;-66
2022/11/30 09:11:22;;;;;;;48.37;21.07;;;;;;;;;;5001736;28;20077;-66
2022/11/30 09:13:48;;;;;;;46.93;21.17;;;;;;;;;;4994825;28;20959;-66
2022/11/30 09:16:16;;;;;;;49.90;22.30;;;;;;;;;;5005801;28;20841;-66
2022/11/30 09:18:42;;;;;;;42.37;21.60;;;;;;;;;;5002380;28;20050;-66
2022/11/30 09:21:09;;;;;;;49.53;21.40;;;;;;;;;;4996383;28;20125;-67
2022/11/30 09:23:36;;;;;;;42.03;19.97;;;;;;;;;;4992805;28;20798;-66
2022/11/30 09:26:03;;;;;;;38.87;19.17;;;;;;;;;;4993228;28;20485;-66
2022/11/30 09:28:29;;;;;;;44.63;21.03;;;;;;;;;;4994623;28;20108;-66
2022/11/30 09:31:02;;;;;;;38.30;18.53;;;;;;;;;;4997209;28;20077;-66
2022/11/30 09:33:29;;;;;;;31.00;17.67;;;;;;;;;;4999411;28;20041;-67
2022/11/30 09:35:56;;;;;;;31.53;16.90;;;;;;;;;;4996257;28;20043;-66
2022/11/30 09:38:22;;;;;;;34.43;17.57;;;;;;;;;;4996840;28;20042;-66
2022/11/30 09:40:53;;;;;;;33.63;17.17;;;;;;;;;;4998060;28;20116;-66
2022/11/30 09:43:19;;;;;;;28.23;16.33;;;;;;;;;;4994705;28;20054;-66
2022/11/30 09:45:48;;;;;;;26.40;16.30;;;;;;;;;;4999782;28;20566;-66
2022/11/30 09:48:23;;;;;;;34.13;18.07;;;;;;;;;;4996214;28;20488;-66
2022/11/30 09:50:50;;;;;;;29.43;16.70;;;;;;;;;;4997177;28;20153;-66
2022/11/30 09:53:22;;;;;;;29.53;17.00;;;;;;;;;;5001221;28;20049;-66
2022/11/30 09:55:48;;;;;;;31.80;16.60;;;;;;;;;;5006288;28;20192;-66
2022/11/30 09:58:23;;;;;;;32.27;17.37;;;;;;;;;;4988150;28;20054;-66
2022/11/30 10:00:49;;;;;;;22.93;14.67;;;;;;;;;;4997461;28;20053;-66
2022/11/30 10:03:16;;;;;;;28.10;17.87;;;;;;;;;;5008870;28;20092;-66
2022/11/30 10:05:46;;;;;;;24.00;15.57;;;;;;;;;;5008230;28;20053;-66
2022/11/30 10:08:18;;;;;;;28.73;16.60;;;;;;;;;;5007230;28;20136;-66
2022/11/30 10:10:47;;;;;;;30.80;15.97;;;;;;;;;;4988434;28;20042;-66
2022/11/30 10:13:20;;;;;;;28.00;17.37;;;;;;;;;;4993225;28;20053;-66
2022/11/30 10:15:53;;;;;;;27.10;16.47;;;;;;;;;;5007997;28;20587;-65
2022/11/30 10:18:25;;;;;;;25.05;16.23;;;;;;;;;;5007943;28;20455;-65
2022/11/30 10:20:58;;;;;;;26.77;15.93;;;;;;;;;;5008430;28;20084;-66
2022/11/30 10:23:57;;;;;;;25.92;16.80;;;;;;;;;;5007792;28;20046;-65
2022/11/30 10:26:34;;;;;;;22.60;14.80;;;;;;;;;;4985284;28;20083;-66
2022/11/30 10:29:05;;;;;;;19.87;14.70;;;;;;;;;;5007778;28;20147;-66
2022/11/30 10:31:36;;;;;;;21.63;14.63;;;;;;;;;;5011508;28;20180;-66
2022/11/30 10:34:21;;;;;;;20.97;14.63;;;;;;;;;;5011542;28;20053;-66
2022/11/30 10:36:53;;;;;;;22.40;15.17;;;;;;;;;;5011651;28;20068;-66
2022/11/30 10:39:26;;;;;;;21.73;15.07;;;;;;;;;;5011538;28;20065;-66
2022/11/30 10:41:59;;;;;;;24.48;15.02;;;;;;;;;;5011455;28;20420;-66
2022/11/30 10:44:30;;;;;;;24.60;15.80;;;;;;;;;;5011460;28;20061;-65
2022/11/30 10:46:56;;;;;;;20.67;14.67;;;;;;;;;;5011402;28;20049;-66
2022/11/30 10:49:23;;;;;;;20.27;14.70;;;;;;;;;;5011068;28;20157;-66
2022/11/30 10:51:53;;;;;;;19.07;14.07;;;;;;;;;;5011073;28;20053;-66
2022/11/30 10:54:20;;;;;;;21.20;14.50;;;;;;;;;;5009840;28;20085;-66
2022/11/30 10:56:47;;;;;;;19.97;14.53;;;;;;;;;;5011122;28;20053;-66
2022/11/30 10:59:18;;;;;;;22.97;14.90;;;;;;;;;;5011396;28;20416;-65
2022/11/30 11:01:45;;;;;;;21.03;14.47;;;;;;;;;;5010654;28;20057;-66
2022/11/30 11:04:24;;;;;;;20.40;13.67;;;;;;;;;;5011282;28;20049;-66
2022/11/30 11:06:53;;;;;;;18.93;13.83;;;;;;;;;;5010698;28;20045;-66
2022/11/30 11:09:37;;;;;;;19.23;13.47;;;;;;;;;;5009361;28;20100;-66
2022/11/30 11:12:05;;;;;;;21.90;14.17;;;;;;;;;;5011122;28;20063;-66
2022/11/30 11:14:31;;;;;;;17.83;13.00;;;;;;;;;;5010770;28;20053;-66
2022/11/30 11:17:01;;;;;;;19.63;14.10;;;;;;;;;;5010718;28;20496;-66
2022/11/30 11:19:41;;;;;;;20.10;14.90;;;;;;;;;;4992897;28;20049;-66
2022/11/30 11:22:15;;;;;;;18.23;12.80;;;;;;;;;;5010699;28;20160;-66
2022/11/30 11:24:41;;;;;;;19.07;13.47;;;;;;;;;;5010360;28;20045;-66
2022/11/30 11:27:18;;;;;;;22.30;14.53;;;;;;;;;;5010732;28;20120;-66
2022/11/30 11:29:44;;;;;;;18.87;14.40;;;;;;;;;;5009415;28;20151;-66
2022/11/30 11:32:18;;;;;;;19.27;13.43;;;;;;;;;;5010198;28;20133;-66
2022/11/30 11:34:44;;;;;;;19.13;13.97;;;;;;;;;;5009472;28;20046;-66
2022/11/30 11:37:15;;;;;;;18.20;13.93;;;;;;;;;;5010467;28;20057;-66
2022/11/30 11:39:42;;;;;;;21.93;15.07;;;;;;;;;;5010128;28;20049;-66
2022/11/30 11:42:16;;;;;;;17.97;14.10;;;;;;;;;;5009289;28;20053;-66
2022/11/30 11:44:42;;;;;;;21.20;15.00;;;;;;;;;;4990926;28;20093;-66
2022/11/30 11:47:20;;;;;;;23.20;15.73;;;;;;;;;;4989298;28;20090;-66
2022/11/30 11:49:48;;;;;;;21.70;15.77;;;;;;;;;;4990626;28;20050;-66
2022/11/30 11:52:17;;;;;;;23.87;16.60;;;;;;;;;;4990152;28;20054;-66
2022/11/30 11:54:48;;;;;;;22.73;16.80;;;;;;;;;;4989213;28;20053;-66
2022/11/30 11:57:15;;;;;;;24.73;16.67;;;;;;;;;;4989162;28;20054;-66
2022/11/30 12:00:00;;;;;;;25.47;16.27;;;;;;;;;;4990453;28;20496;-66
2022/11/30 12:02:44;;;;;;;26.17;15.70;;;;;;;;;;4990471;28;20485;-66
2022/11/30 12:05:14;;;;;;;29.63;18.27;;;;;;;;;;4990776;28;20042;-66
2022/11/30 12:07:59;;;;;;;24.43;16.23;;;;;;;;;;4990358;28;20089;-65
2022/11/30 12:10:26;;;;;;;28.23;18.03;;;;;;;;;;4990275;28;20046;-66
2022/11/30 12:12:54;;;;;;;25.80;15.43;;;;;;;;;;4990337;28;20053;-66
2022/11/30 12:15:24;;;;;;;28.83;18.57;;;;;;;;;;4988603;28;20101;-66
2022/11/30 12:17:50;;;;;;;28.00;19.00;;;;;;;;;;4990302;28;20050;-66
2022/11/30 12:20:25;;;;;;;29.73;19.37;;;;;;;;;;4989848;28;20057;-66
2022/11/30 12:22:54;;;;;;;27.07;17.87;;;;;;;;;;4988798;28;20489;-66
2022/11/30 12:25:24;;;;;;;28.87;18.40;;;;;;;;;;4989617;28;20050;-66
2022/11/30 12:28:07;;;;;;;27.50;18.13;;;;;;;;;;4989768;28;20047;-66
2022/11/30 12:30:33;;;;;;;32.20;21.58;;;;;;;;;;4989811;28;20046;-66
2022/11/30 12:33:19;;;;;;;30.07;20.27;;;;;;;;;;4989937;28;20128;-65
2022/11/30 12:36:04;;;;;;;32.13;19.90;;;;;;;;;;4985654;28;20058;-65
2022/11/30 12:38:30;;;;;;;32.53;20.30;;;;;;;;;;4989594;28;20046;-66
2022/11/30 12:41:14;;;;;;;31.53;20.50;;;;;;;;;;4989420;28;20147;-65
2022/11/30 12:43:47;;;;;;;32.37;21.40;;;;;;;;;;5000799;28;20069;-66
2022/11/30 12:46:22;;;;;;;31.73;20.67;;;;;;;;;;5008109;28;20061;-65
2022/11/30 12:48:52;;;;;;;30.60;19.30;;;;;;;;;;5008911;28;20056;-66
2022/11/30 12:51:28;;;;;;;37.50;21.13;;;;;;;;;;5008806;28;20046;-66
2022/11/30 12:53:54;;;;;;;30.07;19.67;;;;;;;;;;5009173;28;20408;-66
2022/11/30 12:56:21;;;;;;;31.30;19.47;;;;;;;;;;5008789;28;20061;-66
2022/11/30 12:58:53;;;;;;;34.00;20.40;;;;;;;;;;5007560;28;20476;-66
2022/11/30 13:01:25;;;;;;;31.75;19.33;;;;;;;;;;5009146;28;20054;-66
2022/11/30 13:04:10;;;;;;;27.20;19.07;;;;;;;;;;5009121;28;20050;-65
2022/11/30 13:06:42;;;;;;;29.73;18.67;;;;;;;;;;5008452;28;20062;-66
2022/11/30 13:09:20;;;;;;;27.73;19.67;;;;;;;;;;5008808;28;20085;-66
2022/11/30 13:11:49;;;;;;;30.83;19.00;;;;;;;;;;5008841;28;20516;-66
2022/11/30 13:14:21;;;;;;;28.37;18.50;;;;;;;;;;5008812;28;20401;-65
2022/11/30 13:16:48;;;;;;;28.97;18.87;;;;;;;;;;5008722;28;20038;-66
2022/11/30 13:19:33;;;;;;;27.70;19.00;;;;;;;;;;5008528;28;20124;-66
2022/11/30 13:22:02;;;;;;;26.73;18.17;;;;;;;;;;5008523;28;20046;-66
2022/11/30 13:24:39;;;;;;;24.90;17.97;;;;;;;;;;5008400;28;20554;-63
2022/11/30 13:27:12;;;;;;;26.33;18.73;;;;;;;;;;5008735;28;20203;-63
2022/11/30 13:29:50;;;;;;;28.33;18.90;;;;;;;;;;5008214;28;20060;-63
2022/11/30 13:32:16;;;;;;;28.17;18.93;;;;;;;;;;5008742;28;20053;-63
2022/11/30 13:34:43;;;;;;;31.83;20.40;;;;;;;;;;5008493;28;20084;-63
2022/11/30 13:37:12;;;;;;;28.13;19.10;;;;;;;;;;5008360;28;20492;-66
2022/11/30 13:39:47;;;;;;;31.87;20.33;;;;;;;;;;5008360;28;20120;-65
2022/11/30 13:42:19;;;;;;;29.17;20.07;;;;;;;;;;5008094;28;20049;-65
2022/11/30 13:44:45;;;;;;;32.60;20.60;;;;;;;;;;4988571;28;20050;-65
2022/11/30 13:47:32;;;;;;;30.40;19.00;;;;;;;;;;4989000;28;20409;-65
2022/11/30 13:50:00;;;;;;;26.53;17.03;;;;;;;;;;4988760;28;20532;-66
2022/11/30 13:52:52;;;;;;;26.83;18.73;;;;;;;;;;4988302;28;20636;-65
2022/11/30 13:55:41;;;;;;;29.63;19.53;;;;;;;;;;4972996;28;20050;-65
2022/11/30 13:58:09;;;;;;;26.63;16.87;;;;;;;;;;4988784;28;20093;-65
2022/11/30 14:00:35;;;;;;;29.13;19.27;;;;;;;;;;4988591;28;20046;-66
2022/11/30 14:03:13;;;;;;;28.03;18.87;;;;;;;;;;4988747;28;20061;-65
2022/11/30 14:05:40;;;;;;;28.13;18.60;;;;;;;;;;4992802;28;20054;-65
2022/11/30 14:08:08;;;;;;;29.17;19.17;;;;;;;;;;4992432;28;20065;-65
2022/11/30 14:10:40;;;;;;;31.37;19.60;;;;;;;;;;4992034;28;20050;-65
2022/11/30 14:13:09;;;;;;;30.77;19.67;;;;;;;;;;4991270;28;20050;-66
2022/11/30 14:15:38;;;;;;;32.90;20.10;;;;;;;;;;4991227;28;20046;-65
2022/11/30 14:18:13;;;;;;;32.27;21.43;;;;;;;;;;4990899;28;20401;-65
2022/11/30 14:20:44;;;;;;;30.60;19.73;;;;;;;;;;4992312;28;20052;-65
2022/11/30 14:23:15;;;;;;;34.10;21.40;;;;;;;;;;4992355;28;20058;-65